Search METAR Data

METAR Data for ENSS:

ENSS 212120Z AUTO 34013KT 9999 OVC016/// 05/02 Q1008 RMK WIND 0500FT 36017KT